Tiempo atmosférico en la estación meteorológica de Candelaria, Santa Cruz de Tenerife (463 m.)



Fecha
DESCASC
Temp. máxima en grados centígrados (hora)
DESCASC
Temp. mínima en grados centígrados (hora)
DESCASC
Temp. media en grados centígrados
DESCASC
Racha de viento máxima en m/sg (hora)
DESCASC
Velocidad máxima media en intervalos de 10 minutos(hora)
DESCASC
Precipitaciones diarias en mm
DESCASC
Precipitaciones de 00:00 a 06:00 en mm
DESCASC
Precipitaciones de 06:00 a 12:00 en mm
DESCASC
Precipitaciones de 12:00 a 18:00 en mm
DESCASC
Precipitaciones de 18:00 a 24:00 en mm
DESCASC
23-06-2019 22.9 (13:30) 14.8 (06:40) 18.8 7.22 (12:40) 4.17 (14:00) 0 0 0 0 0
22-06-2019 22.7 (13:00) 14.3 (06:50) 18.5 7.5 (16:10) 4.44 (16:00) 0 0 0 0 0
21-06-2019 25.4 (13:40) 15 (06:20) 20.2 11.67 (14:40) 6.67 (14:50) 0 0 0 0 0
20-06-2019 24 (17:30) 15.2 (00:00) 19.6 13.06 (18:10) 6.94 (18:10) 0 0 0 0 0
19-06-2019 20.6 (17:40) 16.4 (00:00) 18.5 5.83 (16:40) 3.61 (16:40) 0 0 0 0 0
18-06-2019 22.5 (12:30) 15 (00:00) 18.8 6.67 (13:20) 3.61 (15:10) 0.2 0 0 0 0.2
17-06-2019 21.7 (14:50) 13.1 (00:00) 17.4 6.11 (14:30) 3.61 (15:00) 0 0 0 0 0
16-06-2019 20.2 (12:20) 13 (00:00) 16.6 6.11 (12:30) 3.89 (06:30) 0 0 0 0 0
15-06-2019 19.4 (10:40) 12.7 (00:00) 16 7.78 (10:30) 5 (10:10) 0 0 0 0 0
14-06-2019 18.8 (13:10) 14.2 (00:00) 16.5 7.22 (13:20) 4.72 (14:50) 0 0 0 0 0
13-06-2019 20.4 (17:10) 15.3 (00:00) 17.8 14.17 (01:40) 8.33 (05:50) 0 0 0 0 0
12-06-2019 23.1 (15:20) 14.8 (00:00) 19 9.44 (18:30) 5.56 (14:30) 0 0 0 0 0
11-06-2019 26.1 (16:00) 14.3 (00:00) 20.2 19.44 (11:10) 11.39 (11:20) 0 0 0 0 0
10-06-2019 25.7 (16:00) 14.6 (00:00) 20.2 9.17 (16:10) 5.83 (19:00) 0 0 0 0 0
09-06-2019 22.7 (17:20) 13 (00:00) 17.9 14.72 (13:30) 7.78 (11:10) 0 0 0 0 0
08-06-2019 21.7 (17:10) 15.1 (00:00) 18.4 10.83 (13:30) 5.56 (12:40) 0 0 0 0 0
07-06-2019 23.5 (15:00) 13.5 (00:00) 18.5 10.56 (17:30) 6.39 (15:20) 0 0 0 0 0
06-06-2019 23 (13:10) 13.7 (00:00) 18.3 12.22 (12:10) 6.67 (12:40) 0 0 0 0 0
05-06-2019 23.4 (13:50) 16.3 (00:00) 19.8 15 (17:10) 6.67 (17:20) 0 0 0 0 0
04-06-2019 26.8 (11:30) 18.1 (00:00) 22.4 7.78 (07:10) 5.83 (07:10) 0 0 0 0 0
03-06-2019 29.5 (09:50) 21.5 (00:00) 25.5 8.33 (01:30) 5 (18:30) 0 0 0 0 0
02-06-2019 31.1 (11:20) 17.8 (00:00) 24.4 6.11 (03:10) 5 (03:10) 0 0 0 0 0
01-06-2019 23.3 (06:00) 15.2 (00:00) 19.2 5.83 (10:40) 3.89 (10:50) 0 0 0 0 0
31-05-2019 22.9 (12:30) 12.3 (00:00) 17.6 5.83 (15:30) 3.33 (14:10) 0 0 0 0 0
30-05-2019 21.3 (13:40) 12.9 (00:00) 17.1 6.11 (12:00) 3.61 (13:10) 0 0 0 0 0
29-05-2019 22.1 (14:10) 13.2 (00:00) 17.7 5.56 (11:30) 3.06 (15:40) 0 0 0 0 0
28-05-2019 22.3 (15:40) 15.6 (00:00) 18.9 6.11 (10:40) 3.89 (09:00) 0 0 0 0 0
27-05-2019 26.6 (15:10) 18.7 (00:00) 22.7 8.33 (18:40) 5.56 (18:50) 0 0 0 0 0
26-05-2019 24.2 (17:20) 14.4 (00:00) 19.3 6.39 (11:20) 4.17 (17:40) 0 0 0 0 0
25-05-2019 24.2 (16:20) 16.6 (00:00) 20.4 10 (14:30) 6.67 (13:40) 0 0 0 0 0

Gráficas

Temp. máximas Temp. mínimas Temp. medias Precipitaciones Rachas de viento máximas Velocidades máximas media en intervalos de 10 minutos

Datos horarios

Fecha y hora oficial Temperatura (ºC) Velocidad del viento (km/h) Dirección del viento Racha (km/h) Dirección de racha Precipitación (mm) Presión (hPa) Tendencia (hPa) Humedad (%)
2019-06-23 23:00:00 18.4 2 Norte 3 Norte 0 -- -- 77
2019-06-23 22:00:00 18.9 0 Calma 5 Sudeste 0 -- -- 76
2019-06-23 21:00:00 19.5 3 Sudeste 8 Sur 0 -- -- 75
2019-06-23 20:00:00 20.5 5 Sur 19 Sudoeste 0 -- -- 74
2019-06-23 19:00:00 21.2 8 Sur 18 Sudeste 0 -- -- 71
2019-06-23 18:00:00 21.8 9 Sur 18 Sur 0 -- -- 68
2019-06-23 17:00:00 22.3 10 Sudoeste 20 Sudoeste 0 -- -- 66
2019-06-23 16:00:00 22.5 10 Sudoeste 22 Sur 0 -- -- 66
2019-06-23 15:00:00 22.8 11 Sur 23 Sur 0 -- -- 65
2019-06-23 14:00:00 22.9 15 Sur 26 Sudoeste 0 -- -- 64
2019-06-23 13:00:00 22.5 11 Sur 26 Sur 0 -- -- 64
2019-06-23 12:00:00 22.6 13 Sur 23 Sur 0 -- -- 65
2019-06-23 11:00:00 22.2 10 Sudeste 18 Sur 0 -- -- 66
2019-06-23 10:00:00 21.4 7 Sur 15 Sur 0 -- -- 68
2019-06-23 09:00:00 20.4 5 Sudoeste 9 Oeste 0 -- -- 68
2019-06-23 08:00:00 17.5 0 Calma 10 Norte 0 -- -- 79
2019-06-23 07:00:00 14.8 8 Nordeste 13 Nordeste 0 -- -- 76
2019-06-23 06:00:00 15 8 Nordeste 10 Nordeste 0 -- -- 76
2019-06-23 05:00:00 15.2 4 Norte 10 Nordeste 0 -- -- 82
2019-06-23 04:00:00 15.9 5 Norte 11 Norte 0 -- -- 83
2019-06-23 03:00:00 16.8 8 Norte 11 Norte 0 -- -- 82
2019-06-23 02:00:00 17.7 4 Norte 8 Nordeste 0 -- -- 82
2019-06-23 01:00:00 17.7 4 Nordeste 5 Nordeste 0 -- -- 80
2019-06-23 00:00:00 17.8 0 Calma 7 Norte 0 -- -- 81
2019-06-22 23:00:00 18.4 0 Calma 5 Sur 0 -- -- 80
2019-06-22 22:00:00 18.4 3 Sudeste 6 Sur 0 -- -- 82
2019-06-22 21:00:00 18.9 5 Sudeste 14 Sudeste 0 -- -- 80
2019-06-22 20:00:00 20 8 Sur 16 Sur 0 -- -- 74
2019-06-22 19:00:00 21.4 9 Sur 18 Sudeste 0 -- -- 68
2019-06-22 18:00:00 22 8 Sur 20 Sur 0 -- -- 67
2019-06-22 17:00:00 22.2 12 Sudoeste 27 Oeste 0 -- -- 67
2019-06-22 16:00:00 22.1 16 Sudoeste 27 Sur 0 -- -- 65
2019-06-22 15:00:00 22.2 12 Sudoeste 21 Sudoeste 0 -- -- 64
2019-06-22 14:00:00 22.3 13 Sur 23 Sudoeste 0 -- -- 64
2019-06-22 13:00:00 22.7 11 Sur 22 Sur 0 -- -- 63
2019-06-22 12:00:00 22 10 Sur 20 Sur 0 -- -- 62
2019-06-22 11:00:00 20.4 9 Sudeste 20 Sudeste 0 -- -- 71
2019-06-22 10:00:00 20.3 7 Sudoeste 15 Sudoeste 0 -- -- 71
2019-06-22 09:00:00 19.2 6 Sur 10 Sur 0 -- -- 75
2019-06-22 08:00:00 16.7 0 Calma 11 Nordeste 0 -- -- 83
2019-06-22 07:00:00 14.3 8 Nordeste 9 Norte 0 -- -- 83
2019-06-22 06:00:00 14.8 5 Nordeste 9 Este 0 -- -- 82
2019-06-22 05:00:00 15.9 5 Este 10 Este 0 -- -- 87
2019-06-22 04:00:00 15.6 4 Nordeste 13 Nordeste 0 -- -- 83
2019-06-22 03:00:00 15.7 5 Nordeste 8 Nordeste 0 -- -- 83
2019-06-22 02:00:00 16 5 Norte 10 Nordeste 0 -- -- 78
2019-06-22 01:00:00 16.8 5 Nordeste 10 Nordeste 0 -- -- 78
2019-06-22 00:00:00 17.5 5 Nordeste 14 Sudeste 0 -- -- 79
2019-06-21 23:00:00 18.3 12 Sudeste 23 Sudeste 0 -- -- 78
2019-06-21 22:00:00 19.2 10 Sudeste 20 Este 0 -- -- 73
2019-06-21 21:00:00 19.7 7 Sudeste 13 Sudoeste 0 -- -- 71
2019-06-21 20:00:00 21 9 Sur 15 Sudoeste 0 -- -- 66
2019-06-21 19:00:00 22.1 13 Oeste 29 Oeste 0 -- -- 63
2019-06-21 18:00:00 22.8 19 Oeste 32 Oeste 0 -- -- 59
2019-06-21 17:00:00 23.3 21 Oeste 30 Oeste 0 -- -- 57
2019-06-21 16:00:00 23.6 21 Noroeste 35 Oeste 0 -- -- 58
2019-06-21 15:00:00 24 21 Noroeste 42 Noroeste 0 -- -- 56
2019-06-21 14:00:00 25 17 Oeste 30 Oeste 0 -- -- 50
2019-06-21 13:00:00 24.4 14 Oeste 26 Sudoeste 0 -- -- 52
2019-06-21 12:00:00 23.2 11 Sudoeste 27 Sudoeste 0 -- -- 55
2019-06-21 11:00:00 22.4 16 Oeste 27 Oeste 0 -- -- 57
2019-06-21 10:00:00 21.6 12 Oeste 20 Oeste 0 -- -- 60
2019-06-21 09:00:00 20.1 4 Sudoeste 9 Sudeste 0 -- -- 66
2019-06-21 08:00:00 17.6 4 Sudeste 12 Nordeste 0 -- -- 79
2019-06-21 07:00:00 15.8 7 Nordeste 13 Nordeste 0 -- -- 84
2019-06-21 06:00:00 15.5 7 Nordeste 13 Nordeste 0 -- -- 83
2019-06-21 05:00:00 16.2 9 Nordeste 14 Nordeste 0 -- -- 84
2019-06-21 04:00:00 16.2 5 Norte 11 Nordeste 0 -- -- 84
2019-06-21 03:00:00 16.5 5 Este 12 Nordeste 0 -- -- 82
2019-06-21 02:00:00 17.2 7 Nordeste 12 Nordeste 0 -- -- 80
2019-06-21 01:00:00 17.7 2 Nordeste 11 Nordeste 0 -- -- 80
2019-06-21 00:00:00 18.1 5 Norte 13 Noroeste 0 -- -- 78
2019-06-20 23:00:00 19 8 Noroeste 12 Noroeste 0 -- -- 74
2019-06-20 22:00:00 19.4 5 Noroeste 9 Noroeste 0 -- -- 71
2019-06-20 21:00:00 20.1 6 Oeste 15 Oeste 0 -- -- 69
2019-06-20 20:00:00 21.2 6 Sudoeste 18 Sudoeste 0 -- -- 65
2019-06-20 19:00:00 22.4 13 Sudoeste 47 Sudeste 0 -- -- 61
2019-06-20 18:00:00 23.4 22 Este 44 Este 0 -- -- 54
2019-06-20 17:00:00 23.1 9 Sudoeste 28 Oeste 0 -- -- 56
2019-06-20 16:00:00 22.7 15 Oeste 30 Oeste 0 -- -- 62
2019-06-20 15:00:00 23.3 17 Oeste 30 Oeste 0 -- -- 61
2019-06-20 14:00:00 22.7 18 Noroeste 32 Oeste 0 -- -- 63
2019-06-20 13:00:00 21.6 13 Noroeste 23 Oeste 0 -- -- 66
2019-06-20 12:00:00 22.2 12 Sudoeste 22 Sudoeste 0 -- -- 63
2019-06-20 11:00:00 21 12 Sudoeste 23 Sudoeste 0 -- -- 63
2019-06-20 10:00:00 21.5 9 Sudoeste 16 Oeste 0 -- -- 58
2019-06-20 09:00:00 20.3 5 Sur 12 Sur 0 -- -- 66
2019-06-20 08:00:00 17.4 9 Nordeste 17 Nordeste 0 -- -- 71
2019-06-20 07:00:00 15.2 14 Nordeste 18 Nordeste 0 -- -- 76
2019-06-20 06:00:00 15.3 14 Nordeste 17 Nordeste 0 -- -- 77
2019-06-20 05:00:00 16.3 12 Nordeste 16 Nordeste 0 -- -- 73
2019-06-20 04:00:00 16.4 9 Nordeste 14 Nordeste 0 -- -- 72
2019-06-20 03:00:00 16.6 8 Norte 11 Norte 0 -- -- 73
2019-06-20 02:00:00 17.8 9 Nordeste 13 Nordeste 0 -- -- 70
2019-06-20 01:00:00 18 5 Nordeste 12 Nordeste 0 -- -- 73
2019-06-20 00:00:00 17.9 9 Nordeste 14 Nordeste 0 -- -- 74
2019-06-19 23:00:00 18.2 5 Este 10 Nordeste 0 -- -- 77
2019-06-19 22:00:00 18.6 4 Este 12 Sudeste 0 -- -- 80
2019-06-19 21:00:00 19.1 4 Sudeste 6 Sudeste 0 -- -- 85
2019-06-19 20:00:00 19.7 4 Sudeste 13 Sur 0 -- -- 81
2019-06-19 19:00:00 20 6 Sur 14 Sur 0 -- -- 78
2019-06-19 18:00:00 20.6 9 Sudoeste 19 Oeste 0 -- -- 77
2019-06-19 17:00:00 19.8 11 Oeste 21 Oeste 0 -- -- 81
2019-06-19 16:00:00 20.2 10 Oeste 15 Oeste 0 -- -- 78
2019-06-19 15:00:00 19.9 5 Oeste 12 Sur 0 -- -- 79
2019-06-19 14:00:00 20 5 Sudeste 14 Sur 0 -- -- 77
2019-06-19 13:00:00 19.6 8 Sur 14 Sur 0 -- -- 83
2019-06-19 12:00:00 19.6 3 Sur 10 Sudeste 0 -- -- 83
2019-06-19 11:00:00 19 8 Sur 16 Sudoeste 0 -- -- 86
2019-06-19 10:00:00 19.5 8 Sur 18 Sur 0 -- -- 85
2019-06-19 09:00:00 20.2 8 Sudeste 13 Sur 0 -- -- 80
2019-06-19 08:00:00 17.3 2 Este 12 Nordeste 0 -- -- 81
2019-06-19 07:00:00 17.2 7 Norte 8 Norte 0 -- -- 88
2019-06-19 06:00:00 18.1 0 Calma 4 Oeste 0 -- -- 93
2019-06-19 05:00:00 18.2 4 Oeste 6 Oeste 0 -- -- 93
2019-06-19 04:00:00 18.2 3 Oeste 5 Oeste 0 -- -- 91
2019-06-19 03:00:00 18.3 2 Oeste 6 Sudoeste 0 -- -- 92
2019-06-19 02:00:00 18.4 4 Oeste 8 Oeste 0 -- -- 93
2019-06-19 01:00:00 18.5 4 Oeste 6 Oeste 0 -- -- 93
2019-06-19 00:00:00 18.5 2 Oeste 5 Noroeste 0 -- -- 90
2019-06-18 23:00:00 18.4 4 Noroeste 6 Oeste 0.2 -- -- 91
2019-06-18 22:00:00 18.6 4 Sudoeste 10 Sur 0 -- -- 92
2019-06-18 21:00:00 18.6 5 Sur 13 Sudeste 0 -- -- 91
2019-06-18 20:00:00 19.1 6 Sur 13 Sur 0 -- -- 89
2019-06-18 19:00:00 19.2 8 Sur 12 Sudoeste 0 -- -- 88
2019-06-18 18:00:00 -- -- -- -- -- -- -- -- --
2019-06-18 17:00:00 20.3 8 Sur 16 Sudoeste 0 -- -- 77
2019-06-18 16:00:00 21 11 Sur 19 Sur 0 -- -- 73
2019-06-18 15:00:00 21.7 11 Sur 21 Sur 0 -- -- 70
2019-06-18 14:00:00 21.9 7 Sur 24 Sur 0 -- -- 71
2019-06-18 13:00:00 21.9 13 Sur 21 Sudoeste 0 -- -- 73
2019-06-18 12:00:00 22.1 11 Sudoeste 19 Sur 0 -- -- 69
2019-06-18 11:00:00 21.6 8 Sudoeste 17 Sur 0 -- -- 68
2019-06-18 10:00:00 21.1 9 Sur 15 Sur 0 -- -- 69
2019-06-18 09:00:00 20.3 5 Sudoeste 9 Oeste 0 -- -- 68
2019-06-18 08:00:00 17.4 0 Calma 8 Nordeste 0 -- -- 78
2019-06-18 07:00:00 15 3 Nordeste 8 Nordeste 0 -- -- 82
2019-06-18 06:00:00 15.3 4 Nordeste 8 Norte 0 -- -- 83
2019-06-18 05:00:00 15.8 5 Norte 9 Nordeste 0 -- -- 82
2019-06-18 04:00:00 15.8 3 Norte 7 Nordeste 0 -- -- 82
2019-06-18 03:00:00 16.1 3 Norte 9 Nordeste 0 -- -- 80
2019-06-18 02:00:00 16.2 7 Nordeste 9 Nordeste 0 -- -- 81
2019-06-18 01:00:00 16.5 5 Nordeste 9 Norte 0 -- -- 80
2019-06-18 00:00:00 16.8 5 Norte 8 Norte 0 -- -- 80
2019-06-17 23:00:00 17.5 3 Norte 5 Norte 0 -- -- 86
2019-06-17 22:00:00 18 0 Calma 4 Sur 0 -- -- 88
2019-06-17 21:00:00 18.3 2 Sur 7 Sur 0 -- -- 86
2019-06-17 20:00:00 19.3 4 Sur 10 Sur 0 -- -- 81
2019-06-17 19:00:00 20.2 8 Sudeste 15 Sudoeste 0 -- -- 74
2019-06-17 18:00:00 20.9 8 Sur 16 Sudoeste 0 -- -- 69
2019-06-17 17:00:00 21 11 Sudoeste 21 Sur 0 -- -- 68
2019-06-17 16:00:00 21.5 10 Sur 20 Sur 0 -- -- 67
2019-06-17 15:00:00 21.2 13 Sur 22 Sudoeste 0 -- -- 69
2019-06-17 14:00:00 21.5 10 Sur 19 Sudeste 0 -- -- 69
2019-06-17 13:00:00 20.9 11 Sur 19 Sur 0 -- -- 70
2019-06-17 12:00:00 20.7 9 Sur 17 Sur 0 -- -- 71
2019-06-17 11:00:00 20.3 9 Sudoeste 17 Sur 0 -- -- 70
2019-06-17 10:00:00 19.5 8 Sur 14 Sur 0 -- -- 71
2019-06-17 09:00:00 18.3 4 Sur 8 Sur 0 -- -- 75
2019-06-17 08:00:00 16.2 3 Sudeste 4 Sur 0 -- -- 82
2019-06-17 07:00:00 13.4 2 Este 8 Nordeste 0 -- -- 84
2019-06-17 06:00:00 13.5 0 Calma 9 Norte 0 -- -- 84
2019-06-17 05:00:00 13.5 7 Norte 11 Nordeste 0 -- -- 85
2019-06-17 04:00:00 14.6 8 Nordeste 10 Nordeste 0 -- -- 83
2019-06-17 03:00:00 15.2 6 Nordeste 10 Nordeste 0 -- -- 81
2019-06-17 02:00:00 16.1 2 Sur 6 Sur 0 -- -- 88
2019-06-17 01:00:00 16.1 2 Sudoeste 8 Sur 0 -- -- 88
2019-06-17 00:00:00 16.4 3 Sudoeste 7 Sudoeste 0 -- -- 85
2019-06-16 23:00:00 16.4 4 Sur 8 Sur 0 -- -- 86
2019-06-16 22:00:00 16.5 4 Sur 8 Sur 0 -- -- 85
2019-06-16 21:00:00 16.5 5 Sur 12 Sur 0 -- -- 83
2019-06-16 20:00:00 16.9 6 Sudeste 12 Sur 0 -- -- 81
2019-06-16 19:00:00 17.4 6 Sur 17 Sur 0 -- -- 79
2019-06-16 18:00:00 18.2 10 Sur 22 Sudeste 0 -- -- 74
2019-06-16 17:00:00 19.3 10 Sur 21 Sur 0 -- -- 69
2019-06-16 16:00:00 19.3 13 Sur 21 Sur 0 -- -- 68
2019-06-16 15:00:00 18.8 9 Sur 20 Sur 0 -- -- 69
2019-06-16 14:00:00 19.1 10 Sur 21 Sur 0 -- -- 68
2019-06-16 13:00:00 19.6 12 Sur 22 Sur 0 -- -- 66
2019-06-16 12:00:00 19.2 13 Sur 21 Sur 0 -- -- 66
2019-06-16 11:00:00 18.7 9 Sur 18 Sur 0 -- -- 68
2019-06-16 10:00:00 18.5 8 Sudoeste 19 Sur 0 -- -- 65
2019-06-16 09:00:00 16.8 4 Oeste 12 Sur 0 -- -- 68
2019-06-16 08:00:00 14.9 4 Nordeste 16 Nordeste 0 -- -- 71
2019-06-16 07:00:00 13.1 14 Norte 17 Nordeste 0 -- -- 75
2019-06-16 06:00:00 14.3 12 Nordeste 16 Nordeste 0 -- -- 74
2019-06-16 05:00:00 14.3 5 Norte 12 Nordeste 0 -- -- 74
2019-06-16 04:00:00 14.5 9 Nordeste 12 Nordeste 0 -- -- 69
2019-06-16 03:00:00 15.3 5 Sur 10 Sudeste 0 -- -- 83
2019-06-16 02:00:00 15.5 5 Sur 12 Sur 0 -- -- 81
2019-06-16 01:00:00 15.6 7 Sur 13 Sudeste 0 -- -- 81
2019-06-16 00:00:00 15.7 9 Sudeste 15 Sudeste 0 -- -- 78
2019-06-15 23:00:00 15.8 7 Sudeste 11 Sudeste 0 -- -- 80
2019-06-15 22:00:00 15.9 3 Sudoeste 10 Sudeste 0 -- -- 82
2019-06-15 21:00:00 15.9 7 Sudeste 12 Sudeste 0 -- -- 80
2019-06-15 20:00:00 16.2 7 Sudeste 14 Sudeste 0 -- -- 79
2019-06-15 19:00:00 16.4 7 Sur 16 Sudeste 0 -- -- 74
2019-06-15 18:00:00 16.8 12 Sudeste 18 Sur 0 -- -- 74
2019-06-15 17:00:00 16.9 11 Sudeste 20 Sudeste 0 -- -- 74
2019-06-15 16:00:00 17.6 12 Sur 19 Sur 0 -- -- 71
2019-06-15 15:00:00 17.8 11 Sur 19 Sur 0 -- -- 70
2019-06-15 14:00:00 17.9 11 Sudeste 21 Sur 0 -- -- 68
2019-06-15 13:00:00 18.1 12 Sudeste 22 Sudeste 0 -- -- 68
2019-06-15 12:00:00 17.7 10 Sudeste 24 Sur 0 -- -- 67
2019-06-15 11:00:00 19.1 17 Sudeste 28 Sur 0 -- -- 56
2019-06-15 10:00:00 17.2 14 Sudeste 24 Sudeste 0 -- -- 68
2019-06-15 09:00:00 15.4 4 Sudeste 10 Sudeste 0 -- -- 77
2019-06-15 08:00:00 15 8 Sudeste 16 Nordeste 0 -- -- 82
2019-06-15 07:00:00 13.9 7 Nordeste 17 Nordeste 0 -- -- 67
2019-06-15 06:00:00 13.6 11 Nordeste 21 Nordeste 0 -- -- 68
2019-06-15 05:00:00 12.9 15 Nordeste 19 Nordeste 0 -- -- 69
2019-06-15 04:00:00 12.8 13 Norte 16 Nordeste 0 -- -- 74
2019-06-15 03:00:00 13.8 12 Nordeste 15 Nordeste 0 -- -- 69
2019-06-15 02:00:00 14.8 9 Nordeste 13 Nordeste 0 -- -- 66
2019-06-15 01:00:00 15.3 0 Calma 9 Sur 0 -- -- 77
2019-06-15 00:00:00 15.7 8 Sudeste 19 Sudeste 0 -- -- 75
2019-06-14 23:00:00 15.7 5 Sudeste 22 Sur 0 -- -- 73
2019-06-14 22:00:00 15.9 12 Sudeste 19 Sur 0 -- -- 78
2019-06-14 21:00:00 15.8 13 Sudeste 22 Sur 0 -- -- 83
2019-06-14 20:00:00 16.1 8 Sur 13 Sur 0 -- -- 82
2019-06-14 19:00:00 16.7 8 Sur 19 Sudeste 0 -- -- 76
2019-06-14 18:00:00 17 10 Sudeste 19 Sur 0 -- -- 74
2019-06-14 17:00:00 16.9 12 Sur 21 Sudeste 0 -- -- 70
2019-06-14 16:00:00 17.5 15 Sudeste 26 Sur 0 -- -- 63
2019-06-14 15:00:00 18.3 15 Sudeste 22 Sudeste 0 -- -- 66
2019-06-14 14:00:00 17.8 13 Sudeste 26 Sur 0 -- -- 61
2019-06-14 13:00:00 18.2 13 Sur 21 Sur 0 -- -- 60
2019-06-14 12:00:00 16.7 5 Sur 18 Sudeste 0 -- -- 71
2019-06-14 11:00:00 16.3 10 Sudeste 20 Sur 0 -- -- 74
2019-06-14 10:00:00 16.5 8 Sudeste 17 Sur 0 -- -- 75
2019-06-14 09:00:00 17.1 5 Sudoeste 12 Noroeste 0 -- -- 68
2019-06-14 08:00:00 15.4 6 Noroeste 9 Norte 0 -- -- 71
2019-06-14 07:00:00 15.4 2 Noroeste 9 Norte 0 -- -- 76
2019-06-14 06:00:00 15.5 5 Norte 16 Noroeste 0 -- -- 74
2019-06-14 05:00:00 15.4 10 Noroeste 15 Noroeste 0 -- -- 76
2019-06-14 04:00:00 15.1 9 Noroeste 14 Norte 0 -- -- 81
2019-06-14 03:00:00 14.2 8 Norte 11 Norte 0 -- -- 82
2019-06-14 02:00:00 15.2 3 Noroeste 13 Sur 0 -- -- 80
2019-06-14 01:00:00 15.6 5 Norte 18 Nordeste 0 -- -- 66
2019-06-14 00:00:00 16.9 12 Norte 22 Norte 0 -- -- 55
2019-06-13 23:00:00 16.8 12 Noroeste 23 Noroeste 0 -- -- 70
2019-06-13 22:00:00 17.1 11 Noroeste 19 Noroeste 0 -- -- 72
2019-06-13 21:00:00 17.4 8 Noroeste 19 Oeste 0 -- -- 71
2019-06-13 20:00:00 18.1 9 Oeste 15 Noroeste 0 -- -- 69
2019-06-13 19:00:00 18.6 10 Oeste 18 Oeste 0 -- -- 67
2019-06-13 18:00:00 19.1 11 Oeste 26 Oeste 0 -- -- 64
2019-06-13 17:00:00 20.2 15 Noroeste 27 Oeste 0 -- -- 61
2019-06-13 16:00:00 19.5 17 Noroeste 28 Noroeste 0 -- -- 62
2019-06-13 15:00:00 19.9 18 Oeste 29 Noroeste 0 -- -- 58
2019-06-13 14:00:00 19.9 7 Sur 22 Sudoeste 0 -- -- 58
2019-06-13 13:00:00 19.6 12 Oeste 25 Oeste 0 -- -- 59
2019-06-13 12:00:00 19.2 12 Oeste 19 Oeste 0 -- -- 62
2019-06-13 11:00:00 18.4 9 Oeste 19 Sudoeste 0 -- -- 64
2019-06-13 10:00:00 18.7 10 Oeste 35 Oeste 0 -- -- 63
2019-06-13 09:00:00 18.5 7 Oeste 17 Sudoeste 0 -- -- 63
2019-06-13 08:00:00 16.9 5 Este 29 Nordeste 0 -- -- 66
2019-06-13 07:00:00 15.9 10 Nordeste 34 Norte 0 -- -- 64
2019-06-13 06:00:00 16.3 28 Norte 48 Norte 0 -- -- 61
2019-06-13 05:00:00 15.8 12 Norte 32 Norte 0 -- -- 74
2019-06-13 04:00:00 15.7 8 Norte 18 Norte 0 -- -- 64
2019-06-13 03:00:00 15.9 6 Norte 30 Norte 0 -- -- 75
2019-06-13 02:00:00 16.8 19 Nordeste 51 Nordeste 0 -- -- 71
2019-06-13 01:00:00 16.6 5 Norte 27 Nordeste 0 -- -- 79
2019-06-13 00:00:00 16.6 4 Noroeste 10 Noroeste 0 -- -- 80
2019-06-12 23:00:00 17.1 7 Noroeste 11 Noroeste 0 -- -- 79
2019-06-12 22:00:00 17.5 4 Sur 12 Sudoeste 0 -- -- 77
2019-06-12 21:00:00 18 4 Sudoeste 17 Oeste 0 -- -- 76
2019-06-12 20:00:00 18.9 11 Sudoeste 30 Sur 0 -- -- 72
2019-06-12 19:00:00 20.7 14 Sudeste 34 Sudeste 0 -- -- 65
2019-06-12 18:00:00 21.7 9 Sudoeste 28 Sudoeste 0 -- -- 59
2019-06-12 17:00:00 21.9 16 Sudoeste 28 Sudoeste 0 -- -- 58
2019-06-12 16:00:00 22.2 15 Sudoeste 28 Oeste 0 -- -- 58
2019-06-12 15:00:00 22.6 20 Oeste 31 Oeste 0 -- -- 56
2019-06-12 14:00:00 22.6 18 Noroeste 29 Noroeste -- -- -- 57
2019-06-12 13:00:00 21.9 14 Noroeste 27 Noroeste 0 -- -- 62
2019-06-12 12:00:00 21.1 10 Noroeste 25 Noroeste 0 -- -- 67
2019-06-12 11:00:00 19.5 10 Oeste 17 Noroeste 0 -- -- 75
2019-06-12 10:00:00 19.1 6 Sur 15 Sudoeste 0 -- -- 73
2019-06-12 09:00:00 18.6 5 Sur 12 Sudoeste 0 -- -- 74
2019-06-12 08:00:00 16.9 2 Este 17 Nordeste 0 -- -- 80
2019-06-12 07:00:00 15.5 5 Noroeste 17 Noroeste 0 -- -- 88
2019-06-12 06:00:00 15.4 12 Noroeste 17 Noroeste 0 -- -- 90
2019-06-12 05:00:00 14.8 5 Nordeste 9 Nordeste 0 -- -- 88
2019-06-12 04:00:00 15.5 5 Nordeste 10 Nordeste 0 -- -- 86
2019-06-12 03:00:00 15.9 0 Calma 12 Sudeste 0 -- -- 83
2019-06-12 02:00:00 16.4 7 Nordeste 12 Nordeste 0 -- -- 81
2019-06-12 01:00:00 16.5 5 Nordeste 10 Noroeste 0 -- -- 84
2019-06-12 00:00:00 17.2 3 Oeste 19 Sudoeste 0 -- -- 80
2019-06-11 23:00:00 17.7 13 Oeste 23 Oeste 0 -- -- 79
2019-06-11 22:00:00 18.3 7 Oeste 26 Noroeste 0 -- -- 76
2019-06-11 21:00:00 19.3 15 Noroeste 30 Norte 0 -- -- 71
2019-06-11 20:00:00 21.9 17 Noroeste 36 Norte 0 -- -- 49
2019-06-11 19:00:00 24.1 12 Noroeste 37 Nordeste 0 -- -- 52
2019-06-11 18:00:00 24.5 13 Norte 53 Nordeste 0 -- -- 50
2019-06-11 17:00:00 25.9 15 Norte 50 Norte 0 -- -- 42
2019-06-11 16:00:00 26.1 14 Norte 60 Nordeste 0 -- -- 46
2019-06-11 15:00:00 24.9 34 Nordeste 61 Norte 0 -- -- 45
2019-06-11 14:00:00 25.2 29 Nordeste 50 Este 0 -- -- 47
2019-06-11 13:00:00 25.4 14 Noroeste 49 Norte 0 -- -- 47
2019-06-11 12:00:00 24.2 30 Norte 70 Norte 0 -- -- 48
2019-06-11 11:00:00 22.5 30 Norte 63 Nordeste 0 -- -- 52
2019-06-11 10:00:00 20.3 13 Oeste 24 Oeste 0 -- -- 61
2019-06-11 09:00:00 18.3 13 Oeste 20 Oeste 0 -- -- 67
2019-06-11 08:00:00 16.1 3 Noroeste 13 Norte 0 -- -- 76
2019-06-11 07:00:00 14.3 5 Noroeste 9 Norte 0 -- -- 82
2019-06-11 06:00:00 15.1 5 Sudeste 16 Nordeste 0 -- -- 79
2019-06-11 05:00:00 15 3 Nordeste 8 Norte 0 -- -- 82
2019-06-11 04:00:00 15.2 5 Este 8 Nordeste 0 -- -- 78
2019-06-11 03:00:00 15.3 4 Nordeste 11 Nordeste 0 -- -- 73
2019-06-11 02:00:00 15.9 5 Este 12 Este 0 -- -- 74
2019-06-11 01:00:00 16 4 Sudoeste 22 Noroeste 0 -- -- 75
2019-06-11 00:00:00 16.5 12 Noroeste 24 Noroeste 0 -- -- 75
2019-06-10 23:00:00 17 18 Noroeste 28 Noroeste 0 -- -- 72
2019-06-10 22:00:00 17.4 15 Noroeste 23 Noroeste 0 -- -- 71
2019-06-10 21:00:00 18.3 13 Noroeste 24 Noroeste 0 -- -- 67
2019-06-10 20:00:00 20.4 13 Oeste 27 Noroeste 0 -- -- 59
2019-06-10 19:00:00 22.3 21 Noroeste 33 Noroeste 0 -- -- 51
2019-06-10 18:00:00 24.1 13 Oeste 26 Oeste 0 -- -- 47
2019-06-10 17:00:00 24.8 15 Oeste 33 Oeste 0 -- -- 45
2019-06-10 16:00:00 25.7 17 Oeste 28 Oeste 0 -- -- 43
2019-06-10 15:00:00 25.4 18 Oeste 28 Noroeste 0 -- -- 44
2019-06-10 14:00:00 24.2 19 Noroeste 31 Oeste 0 -- -- 47
2019-06-10 13:00:00 23.6 16 Noroeste 29 Oeste 0 -- -- 49
2019-06-10 12:00:00 22.3 14 Noroeste 30 Noroeste 0 -- -- 51
2019-06-10 11:00:00 21.1 14 Oeste 30 Noroeste 0 -- -- 54
2019-06-10 10:00:00 19.4 18 Noroeste 27 Noroeste 0 -- -- 59
2019-06-10 09:00:00 17.5 16 Noroeste 22 Noroeste 0 -- -- 65
2019-06-10 08:00:00 15.5 10 Noroeste 22 Noroeste 0 -- -- 73
2019-06-10 07:00:00 14.7 12 Noroeste 26 Noroeste 0 -- -- 73
2019-06-10 06:00:00 15.1 13 Norte 19 Noroeste 0 -- -- 68
2019-06-10 05:00:00 15.1 13 Noroeste 22 Noroeste 0 -- -- 68
2019-06-10 04:00:00 15.2 14 Noroeste 28 Noroeste 0 -- -- 71
2019-06-10 03:00:00 15.2 14 Noroeste 19 Noroeste 0 -- -- 68
2019-06-10 02:00:00 14.9 3 Este 21 Norte 0 -- -- 66
2019-06-10 01:00:00 15.5 14 Noroeste 21 Noroeste 0 -- -- 73
2019-06-10 00:00:00 15.8 12 Norte 26 Noroeste 0 -- -- 73
2019-06-09 23:00:00 16.5 11 Noroeste 22 Noroeste 0 -- -- 69
2019-06-09 22:00:00 17.3 11 Noroeste 31 Noroeste 0 -- -- 62
2019-06-09 21:00:00 18.2 22 Noroeste 27 Noroeste 0 -- -- 60
2019-06-09 20:00:00 20.1 18 Noroeste 24 Noroeste 0 -- -- 51
2019-06-09 19:00:00 22 10 Oeste 21 Sudoeste 0 -- -- 45
2019-06-09 18:00:00 21.5 8 Sudoeste 26 Sur 0 -- -- 46
2019-06-09 17:00:00 22.2 10 Sudoeste 27 Sudoeste 0 -- -- 44
2019-06-09 16:00:00 20.5 14 Sur 28 Sudeste 0 -- -- 59
2019-06-09 15:00:00 20.1 19 Sur 35 Sudeste 0 -- -- 63
2019-06-09 14:00:00 20.2 23 Sur 53 Sudeste 0 -- -- 59
2019-06-09 13:00:00 21.4 19 Sur 49 Sur 0 -- -- 48
2019-06-09 12:00:00 20.8 23 Sur 46 Sudeste 0 -- -- 50
2019-06-09 11:00:00 19.6 26 Sur 45 Sudeste 0 -- -- 57
2019-06-09 10:00:00 18.7 8 Oeste 18 Norte 0 -- -- 58
2019-06-09 09:00:00 17 9 Oeste 15 Oeste 0 -- -- 63
2019-06-09 08:00:00 14.7 6 Norte 16 Nordeste 0 -- -- 73
2019-06-09 07:00:00 13.6 12 Norte 21 Norte 0 -- -- 77
2019-06-09 06:00:00 13.7 11 Norte 19 Norte 0 -- -- 77
2019-06-09 05:00:00 13.1 13 Norte 16 Norte 0 -- -- 78
2019-06-09 04:00:00 13.8 11 Norte 18 Norte 0 -- -- 77
2019-06-09 03:00:00 14.1 13 Norte 19 Norte 0 -- -- 78
2019-06-09 02:00:00 14.5 13 Norte 22 Norte 0 -- -- 78
2019-06-09 01:00:00 14.8 12 Norte 19 Norte 0 -- -- 78
2019-06-09 00:00:00 15.1 12 Norte 21 Noroeste 0 -- -- 76
2019-06-08 23:00:00 15.6 12 Norte 21 Norte 0 -- -- 76
2019-06-08 22:00:00 16.1 13 Norte 24 Noroeste 0 -- -- 75
2019-06-08 21:00:00 16.7 20 Noroeste 30 Noroeste 0 -- -- 73
2019-06-08 20:00:00 18.7 6 Sur 18 Sudoeste 0 -- -- 63
2019-06-08 19:00:00 20.4 5 Sudoeste 21 Noroeste 0 -- -- 57
2019-06-08 18:00:00 21.5 13 Oeste 29 Sudoeste 0 -- -- 55
2019-06-08 17:00:00 21.2 10 Oeste 25 Noroeste 0 -- -- 57
2019-06-08 16:00:00 19 14 Noroeste 25 Noroeste 0 -- -- 65
2019-06-08 15:00:00 17.3 13 Noroeste 21 Sur 0 -- -- 77
2019-06-08 14:00:00 17 13 Sur 39 Sudeste 0 -- -- 81
2019-06-08 13:00:00 16.7 15 Sur 32 Sur 0 -- -- 80
2019-06-08 12:00:00 17.7 9 Sudoeste 24 Noroeste 0 -- -- 80
2019-06-08 11:00:00 18.9 9 Noroeste 24 Sudoeste 0 -- -- 70
2019-06-08 10:00:00 16.7 16 Sur 31 Sur 0 -- -- 81
2019-06-08 09:00:00 17.3 9 Sur 17 Sudoeste 0 -- -- 85
2019-06-08 08:00:00 16.2 12 Noroeste 17 Noroeste 0 -- -- 85
2019-06-08 07:00:00 16.1 8 Oeste 13 Sur 0 -- -- 90
2019-06-08 06:00:00 16.5 3 Sudeste 12 Sur 0 -- -- 89
2019-06-08 05:00:00 16.3 4 Norte 10 Oeste 0 -- -- 81
2019-06-08 04:00:00 15.7 7 Norte 12 Norte 0 -- -- 79
2019-06-08 03:00:00 16 5 Norte 9 Norte 0 -- -- 77
2019-06-08 02:00:00 17.1 2 Nordeste 14 Noroeste 0 -- -- 72
2019-06-08 01:00:00 17.6 9 Norte 19 Oeste 0 -- -- 67
2019-06-08 00:00:00 18.3 6 Este 17 Norte 0 -- -- 59
2019-06-07 23:00:00 18 8 Nordeste 15 Noroeste 0 -- -- 61
2019-06-07 22:00:00 18.5 9 Noroeste 16 Noroeste 0 -- -- 69
2019-06-07 21:00:00 19.4 4 Norte 17 Noroeste 0 -- -- 62
2019-06-07 20:00:00 20.4 6 Sudoeste 16 Sur 0 -- -- 60
2019-06-07 19:00:00 22 13 Oeste 27 Sur 0 -- -- 56
2019-06-07 18:00:00 21.6 16 Sur 38 Sur 0 -- -- 57
2019-06-07 17:00:00 21.6 10 Sudoeste 35 Sudoeste 0 -- -- 57
2019-06-07 16:00:00 23.1 17 Oeste 37 Noroeste 0 -- -- 55
2019-06-07 15:00:00 23.5 14 Oeste 29 Sudoeste 0 -- -- 52
2019-06-07 14:00:00 22.1 16 Sur 32 Sur 0 -- -- 57
2019-06-07 13:00:00 21.6 12 Sur 27 Sudoeste 0 -- -- 58
2019-06-07 12:00:00 20 16 Sur 37 Sudeste 0 -- -- 64
2019-06-07 11:00:00 20.2 15 Sur 36 Sudeste 0 -- -- 58
2019-06-07 10:00:00 19.4 9 Sudoeste 14 Oeste 0 -- -- 59
2019-06-07 09:00:00 18 6 Sudoeste 10 Sur 0 -- -- 63
2019-06-07 08:00:00 15.3 0 Calma 12 Nordeste 0 -- -- 73
2019-06-07 07:00:00 13.8 9 Nordeste 14 Nordeste 0 -- -- 76
2019-06-07 06:00:00 14.2 9 Nordeste 12 Este 0 -- -- 76
2019-06-07 05:00:00 13.7 5 Nordeste 10 Nordeste 0 -- -- 73
2019-06-07 04:00:00 14 7 Nordeste 10 Este 0 -- -- 74
2019-06-07 03:00:00 14.3 8 Nordeste 11 Nordeste 0 -- -- 73
2019-06-07 02:00:00 14.7 7 Este 13 Nordeste 0 -- -- 74
2019-06-07 01:00:00 15.1 4 Este 12 Este 0 -- -- 73
2019-06-07 00:00:00 15.2 7 Este 11 Nordeste 0 -- -- 73
2019-06-06 23:00:00 15.7 3 Noroeste 15 Oeste 0 -- -- 71
2019-06-06 22:00:00 16.4 8 Oeste 19 Oeste 0 -- -- 69
2019-06-06 21:00:00 17.3 8 Noroeste 19 Noroeste 0 -- -- 65
2019-06-06 20:00:00 19 13 Oeste 26 Oeste 0 -- -- 59
2019-06-06 19:00:00 20.5 17 Oeste 26 Oeste 0 -- -- 54
2019-06-06 18:00:00 21.8 17 Oeste 27 Sudoeste 0 -- -- 50
2019-06-06 17:00:00 22.5 18 Oeste 34 Oeste 0 -- -- 48
2019-06-06 16:00:00 22.3 20 Noroeste 42 Noroeste 0 -- -- 48
2019-06-06 15:00:00 22.1 13 Sudoeste 36 Sur 0 -- -- 50
2019-06-06 14:00:00 22.5 15 Sudoeste 42 Norte 0 -- -- 49
2019-06-06 13:00:00 22.8 18 Norte 44 Norte 0 -- -- 44
2019-06-06 12:00:00 21.8 20 Norte 38 Noroeste 0 -- -- 44
2019-06-06 11:00:00 20.7 21 Sur 41 Sudeste 0 -- -- 47
2019-06-06 10:00:00 18.8 8 Sudoeste 21 Oeste 0 -- -- 58
2019-06-06 09:00:00 17.1 8 Noroeste 12 Noroeste 0 -- -- 66
2019-06-06 08:00:00 15.1 7 Noroeste 21 Norte 0 -- -- 73
2019-06-06 07:00:00 13.7 7 Norte 14 Norte 0 -- -- 78
2019-06-06 06:00:00 14.2 8 Norte 13 Norte 0 -- -- 76
2019-06-06 05:00:00 14.1 9 Norte 14 Norte 0 -- -- 77
2019-06-06 04:00:00 14.7 9 Norte 14 Norte 0 -- -- 78
2019-06-06 03:00:00 15.3 9 Norte 15 Noroeste 0 -- -- 76
2019-06-06 02:00:00 15.9 7 Norte 21 Noroeste 0 -- -- 75
2019-06-06 01:00:00 16.4 12 Norte 21 Norte 0 -- -- 75
2019-06-06 00:00:00 16.5 9 Nordeste 22 Noroeste 0 -- -- 75
2019-06-05 23:00:00 17 10 Noroeste 19 Noroeste 0 -- -- 74
2019-06-05 22:00:00 17.4 16 Noroeste 25 Noroeste 0 -- -- 73
2019-06-05 21:00:00 17.9 14 Noroeste 29 Norte 0 -- -- 72
2019-06-05 20:00:00 18.7 21 Noroeste 31 Noroeste 0 -- -- 69
2019-06-05 19:00:00 20.5 20 Noroeste 34 Noroeste 0 -- -- 61
2019-06-05 18:00:00 21.4 17 Noroeste 54 Norte 0 -- -- 59
2019-06-05 17:00:00 21.9 17 Norte 36 Nordeste 0 -- -- 60
2019-06-05 16:00:00 22.7 19 Norte 40 Nordeste 0 -- -- 54
2019-06-05 15:00:00 23.1 22 Noroeste 47 Norte 0 -- -- 55
2019-06-05 14:00:00 23.2 22 Noroeste 42 Noroeste 0 -- -- 55
2019-06-05 13:00:00 23 23 Noroeste 41 Oeste 0 -- -- 55
2019-06-05 12:00:00 23 15 Noroeste 32 Noroeste 0 -- -- 55
2019-06-05 11:00:00 23 12 Sudoeste 36 Norte 0 -- -- 57
2019-06-05 10:00:00 21.5 18 Noroeste 33 Noroeste 0 -- -- 61
2019-06-05 09:00:00 19.8 9 Norte 29 Noroeste 0 -- -- 67
2019-06-05 08:00:00 18 8 Noroeste 22 Sur 0 -- -- 73
2019-06-05 07:00:00 16.6 6 Norte 19 Sur 0 -- -- 77
2019-06-05 06:00:00 16.7 9 Noroeste 14 Noroeste 0 -- -- 77
2019-06-05 05:00:00 16.9 8 Norte 15 Norte 0 -- -- 77
2019-06-05 04:00:00 16.8 6 Norte 12 Noroeste 0 -- -- 80
2019-06-05 03:00:00 17 4 Nordeste 11 Nordeste 0 -- -- 79
2019-06-05 02:00:00 17 6 Norte 11 Nordeste 0 -- -- 79
2019-06-05 01:00:00 17.5 5 Sudeste 12 Este 0 -- -- 78
2019-06-05 00:00:00 18.1 2 Sudeste 9 Sudeste 0 -- -- 75
2019-06-04 23:00:00 18.9 3 Sudeste 10 Sudeste 0 -- -- 71
2019-06-04 22:00:00 19.1 7 Sudeste 13 Sudeste 0 -- -- 72
2019-06-04 21:00:00 20.1 6 Sudeste 9 Sudeste 0 -- -- 71
2019-06-04 20:00:00 22.6 3 Oeste 10 Sudoeste 0 -- -- 60
2019-06-04 19:00:00 23.4 8 Oeste 19 Oeste 0 -- -- 58
2019-06-04 18:00:00 23.3 13 Oeste 26 Oeste 0 -- -- 58
2019-06-04 17:00:00 24 15 Oeste 25 Oeste 0 -- -- 56
2019-06-04 16:00:00 24.7 15 Oeste 24 Sudoeste 0 -- -- 51
2019-06-04 15:00:00 24.6 12 Oeste 23 Sur 0 -- -- 47
2019-06-04 14:00:00 25.4 13 Oeste 22 Sudoeste 0 -- -- 42
2019-06-04 13:00:00 26 13 Oeste 23 Oeste 0 -- -- 39
2019-06-04 12:00:00 26.3 15 Oeste 27 Oeste 0 -- -- 34
2019-06-04 11:00:00 26 15 Noroeste 27 Noroeste 0 -- -- 29
2019-06-04 10:00:00 25.3 16 Noroeste 26 Noroeste 0 -- -- 30
2019-06-04 09:00:00 24.5 14 Noroeste 23 Noroeste 0 -- -- 27
2019-06-04 08:00:00 22.7 14 Noroeste 28 Noroeste 0 -- -- 27
2019-06-04 07:00:00 22.2 19 Noroeste 26 Noroeste 0 -- -- 25
2019-06-04 06:00:00 21.1 7 Norte 17 Norte 0 -- -- 23
2019-06-04 05:00:00 21.6 5 Nordeste 13 Nordeste 0 -- -- 19
2019-06-04 04:00:00 22.7 10 Norte 14 Norte 0 -- -- 18
2019-06-04 03:00:00 22 4 Nordeste 12 Nordeste 0 -- -- 22
2019-06-04 02:00:00 22.1 7 Noroeste 13 Norte 0 -- -- 24
2019-06-04 01:00:00 22.6 8 Norte 14 Norte 0 -- -- 24
2019-06-04 00:00:00 22.9 10 Noroeste 14 Noroeste 0 -- -- 28
2019-06-03 23:00:00 22.1 4 Nordeste 13 Noroeste 0 -- -- 33
2019-06-03 22:00:00 23.7 8 Norte 19 Norte 0 -- -- 32
2019-06-03 21:00:00 23.9 12 Norte 25 Noroeste 0 -- -- 35
2019-06-03 20:00:00 24.9 12 Noroeste 19 Noroeste 0 -- -- 39
2019-06-03 19:00:00 26.5 12 Noroeste 28 Noroeste 0 -- -- 37
2019-06-03 18:00:00 27.6 17 Oeste 25 Noroeste 0 -- -- 37
2019-06-03 17:00:00 28.5 13 Oeste 21 Oeste 0 -- -- 35
2019-06-03 16:00:00 29 13 Oeste 24 Oeste 0 -- -- 32
2019-06-03 15:00:00 27.8 10 Sudoeste 18 Sudoeste 0 -- -- 33
2019-06-03 14:00:00 28.5 8 Sudoeste 16 Sudoeste 0 -- -- 36
2019-06-03 13:00:00 28.5 10 Sudoeste 20 Sudoeste 0 -- -- 36
2019-06-03 12:00:00 27.9 10 Sudoeste 15 Oeste 0 -- -- 37
2019-06-03 11:00:00 28.7 10 Sur 17 Sur 0 -- -- 25
2019-06-03 10:00:00 29.1 6 Sur 12 Sur 0 -- -- 21
2019-06-03 09:00:00 27.4 6 Oeste 9 Oeste 0 -- -- 19
2019-06-03 08:00:00 23.1 3 Norte 13 Nordeste 0 -- -- 23
2019-06-03 07:00:00 22.3 6 Nordeste 18 Nordeste 0 -- -- 23
2019-06-03 06:00:00 21.9 4 Nordeste 10 Nordeste 0 -- -- 25
2019-06-03 05:00:00 21.7 8 Nordeste 15 Nordeste 0 -- -- 21
2019-06-03 04:00:00 23.2 10 Nordeste 21 Este 0 -- -- 20
2019-06-03 03:00:00 22.2 6 Nordeste 10 Nordeste 0 -- -- 26
2019-06-03 02:00:00 24 6 Este 30 Este 0 -- -- 27
2019-06-03 01:00:00 23.5 11 Nordeste 19 Este 0 -- -- 29
2019-06-03 00:00:00 21.9 6 Norte 13 Norte 0 -- -- 39
2019-06-02 23:00:00 23.4 6 Noroeste 9 Noroeste 0 -- -- 38
2019-06-02 22:00:00 24.5 3 Norte 10 Norte 0 -- -- 38
2019-06-02 21:00:00 25.5 2 Este 10 Oeste 0 -- -- 44
2019-06-02 20:00:00 26.7 5 Oeste 8 Sur 0 -- -- 44
2019-06-02 19:00:00 29.2 4 Sudoeste 12 Sudoeste 0 -- -- 37
2019-06-02 18:00:00 29 6 Oeste 12 Sur 0 -- -- 42
2019-06-02 17:00:00 29.8 6 Sur 14 Sur 0 -- -- 39
2019-06-02 16:00:00 30 6 Sur 13 Sur 0 -- -- 43
2019-06-02 15:00:00 28.9 8 Sudoeste 15 Sur 0 -- -- 50
2019-06-02 14:00:00 26.9 7 Oeste 17 Sur 0 -- -- 56
2019-06-02 13:00:00 26.8 7 Sur 16 Sur 0 -- -- 54
2019-06-02 12:00:00 28.4 6 Sudeste 21 Sur 0 -- -- 46
2019-06-02 11:00:00 30.2 5 Sur 14 Sur 0 -- -- 30
2019-06-02 10:00:00 30.4 7 Sur 15 Sudeste 0 -- -- 17
2019-06-02 09:00:00 28.6 5 Sudoeste 13 Norte 0 -- -- 27
2019-06-02 08:00:00 26 13 Nordeste 18 Nordeste 0 -- -- 29
2019-06-02 07:00:00 23.8 10 Nordeste 18 Nordeste 0 -- -- 31
2019-06-02 06:00:00 23.7 5 Nordeste 21 Nordeste 0 -- -- 30
2019-06-02 05:00:00 24.1 15 Nordeste 21 Nordeste 0 -- -- 29
2019-06-02 04:00:00 23.2 13 Norte 22 Nordeste 0 -- -- 32
2019-06-02 03:00:00 23.2 15 Nordeste 19 Nordeste -- -- -- 33
2019-06-02 02:00:00 22.4 8 Este 13 Este 0 -- -- 36
2019-06-02 01:00:00 20.3 5 Nordeste 9 Este 0 -- -- 45
2019-06-02 00:00:00 17.8 3 Este 7 Norte 0 -- -- 70
2019-06-01 23:00:00 17.4 2 Sur 5 Norte 0 -- -- 86
2019-06-01 22:00:00 17.9 0 Calma 4 Sur 0 -- -- 86
2019-06-01 21:00:00 18.4 2 Sudeste 8 Sudeste 0 -- -- 85
2019-06-01 20:00:00 19.3 5 Sur 13 Sur 0 -- -- 81
2019-06-01 19:00:00 20.8 7 Sur 15 Sudeste 0 -- -- 75
2019-06-01 18:00:00 21.3 8 Sur 18 Sur 0 -- -- 73
2019-06-01 17:00:00 21.3 9 Sudoeste 18 Sudoeste 0 -- -- 73
2019-06-01 16:00:00 21.1 9 Sudoeste 17 Sudoeste 0 -- -- 74
2019-06-01 15:00:00 21.2 7 Sur 18 Sur 0 -- -- 73
2019-06-01 14:00:00 21.4 9 Sur 18 Sur 0 -- -- 72
2019-06-01 13:00:00 21.4 10 Sur 19 Sur 0 -- -- 73
2019-06-01 12:00:00 22 9 Sur 15 Sudeste 0 -- -- 70
2019-06-01 11:00:00 20.4 12 Sur 21 Sudeste 0 -- -- 76
2019-06-01 10:00:00 20.7 4 Sur 20 Sudeste 0 -- -- 73
2019-06-01 09:00:00 19.2 3 Sudoeste 9 Sudeste 0 -- -- 78
2019-06-01 08:00:00 16.8 4 Este 9 Sudeste 0 -- -- 86
2019-06-01 07:00:00 16.7 2 Este 12 Sudeste 0 -- -- 81
2019-06-01 06:00:00 23.3 7 Este 18 Este 0 -- -- 33
2019-06-01 05:00:00 16.6 5 Norte 10 Este 0 -- -- 64
2019-06-01 04:00:00 15.5 3 Este 8 Nordeste 0 -- -- 86
2019-06-01 03:00:00 15.4 5 Nordeste 8 Nordeste 0 -- -- 87
2019-06-01 02:00:00 16.1 3 Nordeste 9 Noroeste 0 -- -- 73
2019-06-01 01:00:00 16.4 5 Noroeste 8 Noroeste 0 -- -- 85
2019-06-01 00:00:00 16.8 2 Noroeste 7 Sur 0 -- -- 87
2019-05-31 23:00:00 17.4 0 Calma 8 Sudeste 0 -- -- 77
2019-05-31 22:00:00 17.4 4 Este 6 Sudeste 0 -- -- 86
2019-05-31 21:00:00 17.8 3 Sudeste 8 Sudeste 0 -- -- 85
2019-05-31 20:00:00 20.4 2 Oeste 10 Sur 0 -- -- 75
2019-05-31 19:00:00 20.1 4 Sudoeste 11 Sudoeste 0 -- -- 77
2019-05-31 18:00:00 21.3 4 Sur 14 Sur 0 -- -- 72
2019-05-31 17:00:00 21.1 9 Sur 17 Sudeste 0 -- -- 73
2019-05-31 16:00:00 21.8 9 Sur 21 Sur 0 -- -- 69
2019-05-31 15:00:00 21.7 10 Sur 19 Sudoeste 0 -- -- 68
2019-05-31 14:00:00 22.2 9 Sur 18 Sur 0 -- -- 67
2019-05-31 13:00:00 22.5 9 Sur 17 Sur 0 -- -- 65
2019-05-31 12:00:00 22.2 7 Sudoeste 14 Sudoeste 0 -- -- 65
2019-05-31 11:00:00 20.8 7 Sur 13 Sudeste 0 -- -- 70
2019-05-31 10:00:00 19.6 7 Sur 12 Sur 0 -- -- 74
2019-05-31 09:00:00 18.8 5 Sur 9 Sudoeste 0 -- -- 75
2019-05-31 08:00:00 16.2 0 Calma 4 Sudeste 0 -- -- 84
2019-05-31 07:00:00 14.7 2 Sudeste 6 Nordeste 0 -- -- 51
2019-05-31 06:00:00 12.3 3 Norte 5 Norte 0 -- -- 84
2019-05-31 05:00:00 13.3 3 Norte 5 Norte 0 -- -- 93
2019-05-31 04:00:00 13.7 0 Calma 3 Nordeste 0 -- -- 93
2019-05-31 03:00:00 14 2 Este 4 Noroeste 0 -- -- 88
2019-05-31 02:00:00 14.3 0 Calma 3 Norte 0 -- -- 88
2019-05-31 01:00:00 14.8 0 Calma 3 Norte 0 -- -- 86
2019-05-31 00:00:00 15.1 0 Calma 4 Norte 0 -- -- 84
2019-05-30 23:00:00 15.7 0 Calma 5 Nordeste 0 -- -- 83
2019-05-30 22:00:00 16.4 2 Sudeste 6 Sudeste 0 -- -- 89
2019-05-30 21:00:00 16.9 3 Sudeste 6 Sudeste 0 -- -- 86
2019-05-30 20:00:00 18.1 3 Sur 10 Sudoeste 0 -- -- 81
2019-05-30 19:00:00 19.1 7 Sur 13 Sur 0 -- -- 77
2019-05-30 18:00:00 19.9 8 Sur 16 Sur 0 -- -- 74
2019-05-30 17:00:00 20.4 9 Sur 18 Sur 0 -- -- 72
2019-05-30 16:00:00 20.7 9 Sur 21 Sur 0 -- -- 71
2019-05-30 15:00:00 21 12 Sur 21 Sur 0 -- -- 69
2019-05-30 14:00:00 20.8 9 Sur 21 Sudoeste 0 -- -- 70
2019-05-30 13:00:00 21 11 Sudoeste 19 Sur 0 -- -- 70
2019-05-30 12:00:00 20.5 11 Sur 22 Sur 0 -- -- 70
2019-05-30 11:00:00 20.2 8 Sudoeste 15 Sur 0 -- -- 71
2019-05-30 10:00:00 19.2 7 Sur 12 Sur 0 -- -- 76
2019-05-30 09:00:00 17.8 6 Sur 10 Sudeste 0 -- -- 81
2019-05-30 08:00:00 15.2 0 Calma 6 Norte 0 -- -- 92
2019-05-30 07:00:00 13 3 Nordeste 5 Nordeste 0 -- -- 93
2019-05-30 06:00:00 13.1 0 Calma 4 Nordeste 0 -- -- 93
2019-05-30 05:00:00 13.3 2 Este 5 Nordeste 0 -- -- 93
2019-05-30 04:00:00 13.4 3 Norte 4 Norte 0 -- -- 92
2019-05-30 03:00:00 13.8 0 Calma 2 Norte 0 -- -- 90
2019-05-30 02:00:00 14.1 0 Calma 6 Noroeste 0 -- -- 89
2019-05-30 01:00:00 14.3 0 Calma 4 Noroeste 0 -- -- 87
2019-05-30 00:00:00 15 2 Noroeste 4 Noroeste 0 -- -- 81
2019-05-29 23:00:00 15.9 0 Calma 6 Sudeste 0 -- -- 81
2019-05-29 22:00:00 16.7 3 Sudeste 8 Sudeste 0 -- -- 85
2019-05-29 21:00:00 17.6 4 Sudeste 8 Sur 0 -- -- 80
2019-05-29 20:00:00 18.9 5 Sur 12 Sur 0 -- -- 73
2019-05-29 19:00:00 20.5 6 Sur 16 Sudeste 0 -- -- 67
2019-05-29 18:00:00 21.2 7 Sur 17 Sur 0 -- -- 65
2019-05-29 17:00:00 21.5 11 Sur 19 Sudoeste 0 -- -- 62
2019-05-29 16:00:00 22 10 Sudoeste 18 Sudoeste 0 -- -- 60
2019-05-29 15:00:00 22 10 Sudoeste 19 Sudoeste 0 -- -- 61
2019-05-29 14:00:00 21.8 9 Sur 19 Sur 0 -- -- 62
2019-05-29 13:00:00 21.3 10 Sur 19 Sur 0 -- -- 65
2019-05-29 12:00:00 20.3 10 Sur 20 Sudoeste 0 -- -- 69
2019-05-29 11:00:00 20.4 9 Sur 16 Sudoeste 0 -- -- 70
2019-05-29 10:00:00 19.1 8 Sur 17 Sur 0 -- -- 75
2019-05-29 09:00:00 18.1 7 Sudeste 14 Sudeste 0 -- -- 75
2019-05-29 08:00:00 16.5 3 Sudeste 7 Sur 0 -- -- 71
2019-05-29 07:00:00 13.3 3 Norte 7 Norte 0 -- -- 72
2019-05-29 06:00:00 13.7 2 Norte 8 Norte 0 -- -- 73
2019-05-29 05:00:00 13.9 3 Norte 8 Nordeste 0 -- -- 71
2019-05-29 04:00:00 13.9 3 Este 5 Nordeste 0 -- -- 82
2019-05-29 03:00:00 14.1 4 Nordeste 6 Norte 0 -- -- 86
2019-05-29 02:00:00 14.8 2 Norte 8 Nordeste 0 -- -- 85
2019-05-29 01:00:00 15.1 6 Nordeste 11 Norte 0 -- -- 85
2019-05-29 00:00:00 15.6 9 Nordeste 11 Norte 0 -- -- 85
2019-05-28 23:00:00 16.4 2 Sudoeste 5 Sudoeste 0 -- -- 84
2019-05-28 22:00:00 17 4 Noroeste 15 Oeste 0 -- -- 81
2019-05-28 21:00:00 17.6 9 Noroeste 17 Noroeste 0 -- -- 80
2019-05-28 20:00:00 19.3 10 Oeste 15 Oeste 0 -- -- 73
2019-05-28 19:00:00 20.5 8 Sudoeste 14 Sur 0 -- -- 68
2019-05-28 18:00:00 21.1 10 Sudoeste 20 Sudoeste 0 -- -- 66
2019-05-28 17:00:00 21.2 8 Sur 18 Sur 0 -- -- 65
2019-05-28 16:00:00 21.8 9 Sudoeste 18 Sur 0 -- -- 63
2019-05-28 15:00:00 22.1 9 Sur 20 Sur 0 -- -- 63
2019-05-28 14:00:00 21.8 9 Sur 21 Sur 0 -- -- 64
2019-05-28 13:00:00 21 10 Sur 22 Sur 0 -- -- 66
2019-05-28 12:00:00 20.4 11 Sur 21 Sudoeste 0 -- -- 70
2019-05-28 11:00:00 20 13 Sur 22 Sur 0 -- -- 70
2019-05-28 10:00:00 19.9 9 Sur 18 Oeste 0 -- -- 72
2019-05-28 09:00:00 18.9 14 Noroeste 19 Noroeste 0 -- -- 75
2019-05-28 08:00:00 18.5 8 Noroeste 11 Noroeste 0 -- -- 59
2019-05-28 07:00:00 16.2 3 Este 8 Norte 0 -- -- 54
2019-05-28 06:00:00 16.2 3 Noroeste 6 Noroeste 0 -- -- 65
2019-05-28 05:00:00 17.4 5 Este 13 Noroeste 0 -- -- 56
2019-05-28 04:00:00 16.9 0 Calma 8 Sudeste 0 -- -- 62
2019-05-28 03:00:00 17.9 3 Norte 10 Norte 0 -- -- 49
2019-05-28 02:00:00 18.6 0 Calma 9 Nordeste 0 -- -- 55
2019-05-28 01:00:00 17.5 11 Noroeste 18 Noroeste 0 -- -- 73
2019-05-28 00:00:00 19.5 6 Noroeste 14 Noroeste 0 -- -- 53
2019-05-27 23:00:00 19.6 7 Noroeste 18 Noroeste 0 -- -- 52
2019-05-27 22:00:00 22.7 6 Este 13 Este 0 -- -- 34
2019-05-27 21:00:00 24 2 Este 23 Este 0 -- -- 31
2019-05-27 20:00:00 24.3 10 Este 24 Sur 0 -- -- 27
2019-05-27 19:00:00 25 19 Sur 30 Sur 0 -- -- 38
2019-05-27 18:00:00 24.5 5 Sur 19 Sudeste 0 -- -- 41
2019-05-27 17:00:00 25.3 10 Sur 22 Sur 0 -- -- 37
2019-05-27 16:00:00 26.4 13 Sur 25 Sudeste 0 -- -- 32
2019-05-27 15:00:00 25.9 13 Sur 23 Sur 0 -- -- 32
2019-05-27 14:00:00 25.9 10 Sur 21 Sur 0 -- -- 30
2019-05-27 13:00:00 25.8 12 Sur 24 Sur 0 -- -- 29
2019-05-27 12:00:00 26.1 14 Sudeste 22 Sudeste 0 -- -- 31
2019-05-27 11:00:00 25.9 16 Sudeste 22 Sudeste 0 -- -- 32
2019-05-27 10:00:00 23.9 8 Sur 13 Sur 0 -- -- 47
2019-05-27 09:00:00 23.6 4 Sur 11 Sur 0 -- -- 44
2019-05-27 08:00:00 22 4 Sudeste 22 Este 0 -- -- 33
2019-05-27 07:00:00 19.4 9 Nordeste 14 Este 0 -- -- 39
2019-05-27 06:00:00 20.3 6 Este 17 Este 0 -- -- 39
2019-05-27 05:00:00 20.8 10 Este 26 Este 0 -- -- 37
2019-05-27 04:00:00 21 15 Sudeste 28 Sudeste 0 -- -- 36
2019-05-27 03:00:00 20.5 9 Este 18 Sudeste 0 -- -- 40
2019-05-27 02:00:00 18.7 4 Nordeste 11 Sur 0 -- -- 41
2019-05-27 01:00:00 21 8 Sudeste 15 Este 0 -- -- 35
2019-05-27 00:00:00 19.4 7 Norte 16 Nordeste 0 -- -- 34
2019-05-26 23:00:00 19.6 3 Sudeste 10 Este 0 -- -- 57
2019-05-26 22:00:00 19.3 2 Norte 9 Nordeste 0 -- -- 59
2019-05-26 21:00:00 20.4 0 Calma 7 Sudeste 0 -- -- 62
2019-05-26 20:00:00 22 5 Sur 13 Sudoeste 0 -- -- 60
2019-05-26 19:00:00 23.6 9 Oeste 17 Oeste 0 -- -- 53
2019-05-26 18:00:00 23.3 12 Oeste 23 Oeste 0 -- -- 55
2019-05-26 17:00:00 23.7 13 Oeste 21 Oeste 0 -- -- 54
2019-05-26 16:00:00 23.2 10 Sudoeste 19 Sur 0 -- -- 57
2019-05-26 15:00:00 21.9 11 Sur 19 Sur 0 -- -- 62
2019-05-26 14:00:00 21.1 12 Sur 20 Sudoeste 0 -- -- 63
2019-05-26 13:00:00 21.7 12 Sur 23 Sur 0 -- -- 58
2019-05-26 12:00:00 21.8 11 Sudoeste 23 Sur 0 -- -- 58
2019-05-26 11:00:00 22.9 12 Oeste 22 Sudoeste 0 -- -- 46
2019-05-26 10:00:00 22.2 10 Oeste 15 Sudoeste 0 -- -- 45
2019-05-26 09:00:00 21.6 4 Sudoeste 8 Oeste 0 -- -- 39
2019-05-26 08:00:00 18.6 3 Nordeste 10 Nordeste 0 -- -- 39
2019-05-26 07:00:00 15.4 0 Calma 10 Nordeste 0 -- -- 45
2019-05-26 06:00:00 15.3 3 Norte 11 Noroeste 0 -- -- 45
2019-05-26 05:00:00 15.2 3 Noroeste 13 Noroeste 0 -- -- 54
2019-05-26 04:00:00 14.6 5 Noroeste 10 Norte 0 -- -- 66
2019-05-26 03:00:00 14.7 7 Nordeste 9 Norte 0 -- -- 73
2019-05-26 02:00:00 16.2 5 Este 18 Sudeste 0 -- -- 72
2019-05-26 01:00:00 16.3 12 Sudeste 19 Sudeste 0 -- -- 77
2019-05-26 00:00:00 16.7 8 Este 16 Este 0 -- -- 68
2019-05-25 23:00:00 16.9 9 Este 14 Sudeste 0 -- -- 69
2019-05-25 22:00:00 18.3 9 Sudeste 13 Sudeste 0 -- -- 64
2019-05-25 21:00:00 20 6 Este 13 Oeste 0 -- -- 54
2019-05-25 20:00:00 21.6 5 Noroeste 23 Noroeste 0 -- -- 49
2019-05-25 19:00:00 22.7 17 Oeste 27 Noroeste 0 -- -- 49
2019-05-25 18:00:00 22.5 19 Noroeste 34 Noroeste 0 -- -- 50
2019-05-25 17:00:00 23.8 17 Noroeste 29 Oeste 0 -- -- 54
2019-05-25 16:00:00 24.1 19 Noroeste 34 Noroeste 0 -- -- 54
2019-05-25 15:00:00 23.9 20 Noroeste 36 Noroeste 0 -- -- 56
2019-05-25 14:00:00 23.2 21 Noroeste 35 Noroeste 0 -- -- 58
2019-05-25 13:00:00 23.6 11 Oeste 35 Noroeste 0 -- -- 57
2019-05-25 12:00:00 22.2 19 Noroeste 35 Noroeste 0 -- -- 60
2019-05-25 11:00:00 21.9 19 Noroeste 31 Noroeste 0 -- -- 60
2019-05-25 10:00:00 20.2 19 Noroeste 33 Noroeste 0 -- -- 66
2019-05-25 09:00:00 19.1 17 Noroeste 28 Noroeste 0 -- -- 67
2019-05-25 08:00:00 17.4 22 Noroeste 30 Noroeste 0 -- -- 67
2019-05-25 07:00:00 16.8 13 Noroeste 22 Noroeste 0 -- -- 50
2019-05-25 06:00:00 17.1 16 Noroeste 23 Noroeste 0 -- -- 57
2019-05-25 05:00:00 17.5 13 Norte 17 Norte 0 -- -- 48
2019-05-25 04:00:00 17.9 13 Noroeste 17 Noroeste 0 -- -- 41
2019-05-25 03:00:00 17.2 6 Norte 13 Norte 0 -- -- 42
2019-05-25 02:00:00 17.7 6 Norte 16 Noroeste 0 -- -- 43
2019-05-25 01:00:00 18.5 12 Noroeste 16 Noroeste 0 -- -- 46
2019-05-25 00:00:00 18.8 8 Noroeste 22 Noroeste 0 -- -- 44